Time;durP1;ratioP1;P1;durP2;ratioP2;P2;SDS_P1;SDS_P2;PMS_P1;PMS_P2;Temp;Humidity;BMP_temperature;BMP_pressure;BME280_temperature;BME280_humidity;BME280_pressure;Samples;Min_cycle;Max_cycle;Signal;HPM_P1;HPM_P2
2023/11/23 00:00:19;;;;;;;0.68;0.68;;;;;;;;;;1032444;28;20109;-77
2023/11/23 00:00:49;;;;;;;0.65;0.65;;;;;;;;;;1029759;28;20097;-77
2023/11/23 00:01:20;;;;;;;1.73;1.63;;;;;;;;;;1033573;28;20113;-77
2023/11/23 00:01:50;;;;;;;1.08;1.08;;;;;;;;;;1033067;28;20402;-77
2023/11/23 00:02:21;;;;;;;1.30;1.20;;;;;;;;;;1037314;28;20464;-77
2023/11/23 00:02:51;;;;;;;0.60;0.52;;;;;;;;;;1037351;28;20025;-77
2023/11/23 00:03:21;;;;;;;0.75;0.75;;;;;;;;;;1037435;28;20018;-77
2023/11/23 00:03:52;;;;;;;4.55;2.83;;;;;;;;;;1034825;28;20029;-77
2023/11/23 00:04:22;;;;;;;0.95;0.95;;;;;;;;;;1037694;28;20389;-77
2023/11/23 00:04:53;;;;;;;0.10;0.10;;;;;;;;;;1037785;28;20018;-77
2023/11/23 00:05:23;;;;;;;0.32;0.32;;;;;;;;;;1033822;28;20014;-77
2023/11/23 00:05:54;;;;;;;1.02;1.02;;;;;;;;;;1036959;28;20029;-77
2023/11/23 00:06:24;;;;;;;0.55;0.55;;;;;;;;;;1037305;28;20099;-77
2023/11/23 00:06:55;;;;;;;0.47;0.47;;;;;;;;;;1037668;28;20025;-77
2023/11/23 00:07:25;;;;;;;1.67;1.58;;;;;;;;;;1035882;28;20026;-77
2023/11/23 00:07:56;;;;;;;0.28;0.28;;;;;;;;;;1037909;28;20583;-77
2023/11/23 00:08:26;;;;;;;2.45;2.30;;;;;;;;;;1033095;28;20678;-77
2023/11/23 00:08:57;;;;;;;6.35;2.03;;;;;;;;;;1034673;28;20029;-77
2023/11/23 00:09:28;;;;;;;3.17;1.83;;;;;;;;;;1037327;28;20026;-77
2023/11/23 00:09:59;;;;;;;1.58;1.05;;;;;;;;;;1038217;28;20025;-77
2023/11/23 00:10:29;;;;;;;0.52;0.52;;;;;;;;;;1038596;28;20040;-77
2023/11/23 00:11:00;;;;;;;2.22;2.08;;;;;;;;;;1037061;28;20029;-78
2023/11/23 00:11:30;;;;;;;1.65;1.55;;;;;;;;;;1037008;28;20597;-78
2023/11/23 00:12:01;;;;;;;2.30;0.60;;;;;;;;;;1041663;28;20029;-78
2023/11/23 00:12:31;;;;;;;2.22;2.05;;;;;;;;;;1037970;28;20085;-78
2023/11/23 00:13:02;;;;;;;1.83;1.70;;;;;;;;;;1037713;28;20113;-78
2023/11/23 00:13:32;;;;;;;1.42;1.33;;;;;;;;;;1037659;28;20485;-78
2023/11/23 00:14:03;;;;;;;1.55;1.45;;;;;;;;;;1037740;28;20127;-78
2023/11/23 00:14:33;;;;;;;1.80;1.40;;;;;;;;;;1037581;28;20075;-78
2023/11/23 00:15:04;;;;;;;1.48;1.38;;;;;;;;;;1037935;28;20017;-77
2023/11/23 00:15:35;;;;;;;0.35;0.35;;;;;;;;;;1037561;28;20032;-77
2023/11/23 00:16:06;;;;;;;3.25;3.03;;;;;;;;;;1037769;28;20508;-77
2023/11/23 00:16:36;;;;;;;1.88;1.77;;;;;;;;;;1037481;28;20116;-77
2023/11/23 00:17:08;;;;;;;0.43;0.43;;;;;;;;;;1037493;28;20032;-77
2023/11/23 00:17:38;;;;;;;0.98;0.98;;;;;;;;;;1035683;28;20637;-77
2023/11/23 00:18:09;;;;;;;0.40;0.40;;;;;;;;;;1037578;28;20025;-77
2023/11/23 00:18:39;;;;;;;1.67;0.90;;;;;;;;;;1037173;28;20190;-77
2023/11/23 00:19:10;;;;;;;0.50;0.50;;;;;;;;;;1037921;28;20013;-77
2023/11/23 00:19:41;;;;;;;0.25;0.25;;;;;;;;;;1037129;28;20492;-77
2023/11/23 00:20:11;;;;;;;0.73;0.73;;;;;;;;;;1037740;28;20128;-77
2023/11/23 00:20:43;;;;;;;0.80;0.80;;;;;;;;;;1037410;28;20025;-77
2023/11/23 00:21:44;;;;;;;0.33;0.33;;;;;;;;;;1047298;22;20052;-77
2023/11/23 00:22:17;;;;;;;0.70;0.70;;;;;;;;;;1031440;28;20042;-77
2023/11/23 00:22:48;;;;;;;2.38;2.22;;;;;;;;;;1033266;28;20109;-77
2023/11/23 00:23:19;;;;;;;0.20;0.20;;;;;;;;;;1033856;28;20389;-77
2023/11/23 00:23:49;;;;;;;1.90;1.80;;;;;;;;;;1033641;28;20034;-77
2023/11/23 00:24:19;;;;;;;0.90;0.85;;;;;;;;;;1037392;28;20032;-77
2023/11/23 00:24:50;;;;;;;0.10;0.10;;;;;;;;;;1033292;28;20034;-77
2023/11/23 00:25:20;;;;;;;2.42;2.22;;;;;;;;;;1032830;28;20403;-77
2023/11/23 00:25:51;;;;;;;1.33;1.27;;;;;;;;;;1034238;28;20026;-77
2023/11/23 00:26:23;;;;;;;6.20;3.35;;;;;;;;;;1033340;28;20014;-77
2023/11/23 00:26:54;;;;;;;1.08;1.02;;;;;;;;;;1034106;28;20096;-77
2023/11/23 00:27:24;;;;;;;0.20;0.20;;;;;;;;;;1033190;28;20030;-77
2023/11/23 00:27:55;;;;;;;1.00;0.80;;;;;;;;;;1030805;28;20431;-77
2023/11/23 00:28:25;;;;;;;0.63;0.63;;;;;;;;;;1031252;28;20018;-77
2023/11/23 00:28:56;;;;;;;1.38;1.35;;;;;;;;;;1030782;28;20027;-77
2023/11/23 00:29:26;;;;;;;0.25;0.25;;;;;;;;;;1031064;28;20041;-77
2023/11/23 00:29:57;;;;;;;0.40;0.40;;;;;;;;;;1033488;28;20540;-77
2023/11/23 00:30:27;;;;;;;2.28;2.05;;;;;;;;;;1033601;28;20549;-77
2023/11/23 00:30:58;;;;;;;0.43;0.43;;;;;;;;;;1033436;28;20491;-77
2023/11/23 00:31:28;;;;;;;1.35;1.25;;;;;;;;;;1033375;28;20041;-77
2023/11/23 00:31:59;;;;;;;1.35;1.27;;;;;;;;;;1033278;28;20022;-77
2023/11/23 00:32:29;;;;;;;0.50;0.50;;;;;;;;;;1033504;28;20025;-77
2023/11/23 00:33:00;;;;;;;1.58;1.48;;;;;;;;;;1028853;28;20022;-77
2023/11/23 00:33:30;;;;;;;5.47;1.10;;;;;;;;;;1029336;28;20017;-77
2023/11/23 00:34:05;;;;;;;0.15;0.15;;;;;;;;;;1028481;28;20030;-77
2023/11/23 00:34:35;;;;;;;7.85;1.58;;;;;;;;;;1030259;28;20042;-77
2023/11/23 00:35:06;;;;;;;0.57;0.57;;;;;;;;;;1033364;28;20018;-77
2023/11/23 00:35:36;;;;;;;2.90;2.42;;;;;;;;;;1033110;28;20588;-77
2023/11/23 00:36:07;;;;;;;1.30;1.20;;;;;;;;;;1035336;28;20017;-77
2023/11/23 00:36:38;;;;;;;1.05;1.05;;;;;;;;;;1035135;28;20036;-77
2023/11/23 00:37:09;;;;;;;2.20;1.95;;;;;;;;;;1031750;28;20461;-77
2023/11/23 00:37:39;;;;;;;0.63;0.63;;;;;;;;;;1035047;28;20033;-77
2023/11/23 00:38:11;;;;;;;0.32;0.32;;;;;;;;;;1029653;28;20542;-77
2023/11/23 00:38:42;;;;;;;0.90;0.90;;;;;;;;;;1029083;28;20019;-77
2023/11/23 00:39:13;;;;;;;0.55;0.55;;;;;;;;;;1029651;28;20014;-77
2023/11/23 00:39:43;;;;;;;1.65;1.55;;;;;;;;;;1029462;28;20080;-77
2023/11/23 00:40:14;;;;;;;1.13;1.13;;;;;;;;;;1029642;28;20026;-77
2023/11/23 00:40:44;;;;;;;1.20;1.20;;;;;;;;;;1033032;28;20020;-77
2023/11/23 00:41:15;;;;;;;1.05;0.95;;;;;;;;;;1032674;28;20036;-77
2023/11/23 00:41:45;;;;;;;0.50;0.50;;;;;;;;;;1032653;28;20422;-77
2023/11/23 00:42:16;;;;;;;6.13;2.40;;;;;;;;;;1033468;28;20029;-77
2023/11/23 00:42:46;;;;;;;3.50;0.82;;;;;;;;;;1029025;28;20426;-77
2023/11/23 00:43:17;;;;;;;0.63;0.63;;;;;;;;;;1029238;28;20117;-77
2023/11/23 00:43:47;;;;;;;0.20;0.20;;;;;;;;;;1033569;28;20121;-77
2023/11/23 00:44:18;;;;;;;0.88;0.88;;;;;;;;;;1032635;28;20534;-77
2023/11/23 00:44:48;;;;;;;2.65;1.30;;;;;;;;;;1033218;28;20080;-77
2023/11/23 00:45:19;;;;;;;0.20;0.20;;;;;;;;;;1033564;28;20028;-77
2023/11/23 00:45:50;;;;;;;0.43;0.43;;;;;;;;;;1034256;28;20022;-77
2023/11/23 00:46:20;;;;;;;1.08;1.08;;;;;;;;;;1032291;28;20033;-77
2023/11/23 00:46:51;;;;;;;1.63;1.52;;;;;;;;;;1033913;28;20102;-77
2023/11/23 00:47:21;;;;;;;0.52;0.52;;;;;;;;;;1033381;28;20022;-77
2023/11/23 00:47:53;;;;;;;1.05;1.00;;;;;;;;;;1033490;28;20518;-77
2023/11/23 00:48:23;;;;;;;0.95;0.90;;;;;;;;;;1033487;28;20030;-77
2023/11/23 00:48:54;;;;;;;1.65;1.23;;;;;;;;;;1032867;28;20152;-77
2023/11/23 00:49:25;;;;;;;0.13;0.13;;;;;;;;;;1031846;28;20021;-77
2023/11/23 00:49:55;;;;;;;1.08;1.08;;;;;;;;;;1033156;28;20018;-77
2023/11/23 00:50:27;;;;;;;0.45;0.45;;;;;;;;;;1033134;28;20031;-77
2023/11/23 00:50:58;;;;;;;1.10;1.10;;;;;;;;;;1030685;28;20478;-77
2023/11/23 00:51:29;;;;;;;1.90;1.58;;;;;;;;;;1026935;28;20057;-78
2023/11/23 00:52:00;;;;;;;2.15;2.05;;;;;;;;;;1026084;28;20070;-78
2023/11/23 00:52:31;;;;;;;1.35;1.30;;;;;;;;;;1025570;28;20081;-78
2023/11/23 00:53:01;;;;;;;1.65;1.48;;;;;;;;;;1029167;28;20158;-78
2023/11/23 00:53:32;;;;;;;0.45;0.45;;;;;;;;;;1030878;28;20632;-78
2023/11/23 00:54:04;;;;;;;0.40;0.40;;;;;;;;;;1033267;28;20060;-78
2023/11/23 00:54:38;;;;;;;1.98;1.85;;;;;;;;;;1033644;28;20018;-78
2023/11/23 00:55:09;;;;;;;0.70;0.70;;;;;;;;;;1034082;28;20482;-78
2023/11/23 00:55:40;;;;;;;0.80;0.80;;;;;;;;;;1031599;28;20032;-78
2023/11/23 00:56:11;;;;;;;0.10;0.10;;;;;;;;;;1032844;28;20018;-78
2023/11/23 00:56:42;;;;;;;0.38;0.38;;;;;;;;;;1028833;28;20556;-78
2023/11/23 00:57:12;;;;;;;1.15;1.15;;;;;;;;;;1029432;28;20022;-78
2023/11/23 00:57:42;;;;;;;0.68;0.68;;;;;;;;;;1028092;28;20062;-78
2023/11/23 00:58:13;;;;;;;0.95;0.35;;;;;;;;;;1028041;28;20015;-78
2023/11/23 00:58:44;;;;;;;0.25;0.25;;;;;;;;;;1028000;28;20027;-78
2023/11/23 00:59:15;;;;;;;0.65;0.65;;;;;;;;;;1028904;28;20015;-78
2023/11/23 00:59:46;;;;;;;1.35;1.10;;;;;;;;;;1028188;28;20030;-78
2023/11/23 01:00:18;;;;;;;0.28;0.28;;;;;;;;;;1029493;28;20076;-78
2023/11/23 01:00:48;;;;;;;0.20;0.20;;;;;;;;;;1008497;28;20038;-78
2023/11/23 01:01:19;;;;;;;3.10;2.05;;;;;;;;;;1033225;28;20026;-78
2023/11/23 01:01:49;;;;;;;0.60;0.60;;;;;;;;;;1034879;28;20711;-78
2023/11/23 01:02:20;;;;;;;0.30;0.30;;;;;;;;;;1030751;28;20130;-78
2023/11/23 01:02:51;;;;;;;1.88;1.75;;;;;;;;;;1029368;28;20109;-78
2023/11/23 01:03:24;;;;;;;0.32;0.32;;;;;;;;;;1032832;28;20022;-77
2023/11/23 01:03:55;;;;;;;0.38;0.38;;;;;;;;;;1032571;28;20030;-77
2023/11/23 01:04:27;;;;;;;2.97;2.78;;;;;;;;;;1032393;28;20526;-77
2023/11/23 01:04:58;;;;;;;0.50;0.50;;;;;;;;;;1030339;28;20034;-77
2023/11/23 01:05:28;;;;;;;1.27;1.17;;;;;;;;;;1031769;28;20022;-77
2023/11/23 01:05:59;;;;;;;2.15;1.75;;;;;;;;;;1031832;28;20112;-76
2023/11/23 01:06:30;;;;;;;0.60;0.60;;;;;;;;;;1035298;23;20046;-77
2023/11/23 01:07:00;;;;;;;0.35;0.35;;;;;;;;;;1028901;28;20015;-77
2023/11/23 01:07:31;;;;;;;0.22;0.22;;;;;;;;;;1028383;28;20477;-77
2023/11/23 01:08:01;;;;;;;0.50;0.50;;;;;;;;;;1027851;28;20027;-77
2023/11/23 01:08:32;;;;;;;1.85;1.75;;;;;;;;;;1030700;28;20117;-77
2023/11/23 01:09:02;;;;;;;2.00;1.85;;;;;;;;;;1029824;28;20030;-77
2023/11/23 01:09:33;;;;;;;1.15;1.08;;;;;;;;;;1032740;28;20041;-77
2023/11/23 01:10:06;;;;;;;0.32;0.32;;;;;;;;;;1033241;28;20037;-76
2023/11/23 01:10:37;;;;;;;0.55;0.55;;;;;;;;;;1032865;28;20091;-76
2023/11/23 01:11:09;;;;;;;0.70;0.70;;;;;;;;;;1028963;28;20026;-77
2023/11/23 01:11:39;;;;;;;0.47;0.47;;;;;;;;;;1022962;28;20062;-77
2023/11/23 01:12:10;;;;;;;0.10;0.10;;;;;;;;;;1023001;29;20082;-77
2023/11/23 01:12:40;;;;;;;4.82;2.03;;;;;;;;;;1022914;28;20034;-77
2023/11/23 01:13:12;;;;;;;0.43;0.43;;;;;;;;;;1026855;28;20062;-77
2023/11/23 01:13:42;;;;;;;1.08;1.08;;;;;;;;;;1027308;28;20038;-77
2023/11/23 01:14:13;;;;;;;1.10;0.30;;;;;;;;;;1026846;28;20022;-77
2023/11/23 01:14:43;;;;;;;2.97;1.38;;;;;;;;;;1026668;28;20455;-77
2023/11/23 01:15:14;;;;;;;1.00;1.00;;;;;;;;;;1024709;28;20565;-77
2023/11/23 01:15:44;;;;;;;1.23;1.00;;;;;;;;;;1024753;28;20062;-77
2023/11/23 01:16:15;;;;;;;1.52;1.45;;;;;;;;;;1026722;28;20113;-77
2023/11/23 01:16:45;;;;;;;1.80;1.65;;;;;;;;;;1024693;28;20031;-77
2023/11/23 01:17:16;;;;;;;5.82;2.05;;;;;;;;;;1024604;28;20073;-77
2023/11/23 01:17:47;;;;;;;3.20;1.73;;;;;;;;;;1023294;28;20035;-77
2023/11/23 01:18:17;;;;;;;0.17;0.17;;;;;;;;;;1025857;28;20089;-77
2023/11/23 01:18:48;;;;;;;0.25;0.25;;;;;;;;;;1024679;28;20034;-77
2023/11/23 01:19:18;;;;;;;0.52;0.52;;;;;;;;;;1025693;28;20074;-77
2023/11/23 01:19:49;;;;;;;0.77;0.77;;;;;;;;;;1025442;28;20479;-77
2023/11/23 01:20:19;;;;;;;0.03;0.03;;;;;;;;;;1026792;28;20025;-77
2023/11/23 01:20:53;;;;;;;6.20;1.80;;;;;;;;;;1026855;28;20026;-77
2023/11/23 01:21:23;;;;;;;0.52;0.52;;;;;;;;;;1027202;28;20479;-77
2023/11/23 01:21:54;;;;;;;0.68;0.68;;;;;;;;;;1024523;28;20031;-77
2023/11/23 01:22:24;;;;;;;1.35;0.95;;;;;;;;;;1025585;28;20041;-77
2023/11/23 01:22:55;;;;;;;0.25;0.25;;;;;;;;;;1029448;28;20502;-77
2023/11/23 01:23:26;;;;;;;0.88;0.88;;;;;;;;;;1025604;28;20026;-77
2023/11/23 01:23:56;;;;;;;1.92;1.83;;;;;;;;;;1027916;28;20023;-78
2023/11/23 01:24:27;;;;;;;0.25;0.25;;;;;;;;;;1027775;28;20039;-77
2023/11/23 01:24:57;;;;;;;3.83;1.23;;;;;;;;;;1024079;28;20027;-77
2023/11/23 01:25:28;;;;;;;4.43;1.80;;;;;;;;;;1026195;28;20031;-77
2023/11/23 01:25:59;;;;;;;0.30;0.30;;;;;;;;;;1023180;28;20037;-78
2023/11/23 01:26:29;;;;;;;0.88;0.88;;;;;;;;;;1020859;28;20024;-77
2023/11/23 01:27:00;;;;;;;0.25;0.25;;;;;;;;;;1027599;28;20034;-77
2023/11/23 01:27:31;;;;;;;0.68;0.68;;;;;;;;;;1026869;28;20027;-76
2023/11/23 01:28:01;;;;;;;0.55;0.55;;;;;;;;;;1029573;28;20407;-76
2023/11/23 01:28:32;;;;;;;0.50;0.50;;;;;;;;;;1023705;28;20151;-76
2023/11/23 01:29:02;;;;;;;0.43;0.43;;;;;;;;;;1024124;28;20031;-78
2023/11/23 01:29:33;;;;;;;1.10;0.75;;;;;;;;;;1023613;28;20027;-77
2023/11/23 01:30:06;;;;;;;1.55;1.45;;;;;;;;;;1027555;28;20559;-78
2023/11/23 01:30:37;;;;;;;0.70;0.70;;;;;;;;;;1027317;28;20026;-79
2023/11/23 01:31:09;;;;;;;1.88;1.75;;;;;;;;;;1026880;28;20091;-79
2023/11/23 01:31:39;;;;;;;3.22;2.38;;;;;;;;;;1026421;28;20062;-77
2023/11/23 01:32:10;;;;;;;1.48;1.38;;;;;;;;;;1021963;28;20082;-77
2023/11/23 01:32:40;;;;;;;0.10;0.10;;;;;;;;;;1024978;28;20030;-76
2023/11/23 01:33:11;;;;;;;0.70;0.70;;;;;;;;;;1024481;28;20605;-79
2023/11/23 01:33:42;;;;;;;0.17;0.17;;;;;;;;;;1023885;28;20417;-78
2023/11/23 01:34:12;;;;;;;1.23;1.13;;;;;;;;;;1022286;28;20489;-78
2023/11/23 01:34:43;;;;;;;0.57;0.57;;;;;;;;;;1026153;28;20145;-78
2023/11/23 01:35:13;;;;;;;0.30;0.30;;;;;;;;;;1023529;28;20093;-78
2023/11/23 01:35:44;;;;;;;0.15;0.15;;;;;;;;;;1025520;28;20475;-77
2023/11/23 01:36:14;;;;;;;1.17;1.00;;;;;;;;;;1028855;28;20034;-78
2023/11/23 01:36:45;;;;;;;0.55;0.55;;;;;;;;;;1029156;28;20568;-80
2023/11/23 01:37:15;;;;;;;2.28;1.52;;;;;;;;;;1030401;28;20022;-80
2023/11/23 01:37:46;;;;;;;0.47;0.47;;;;;;;;;;1031410;28;20198;-78
2023/11/23 01:38:17;;;;;;;1.30;1.20;;;;;;;;;;1030302;28;20026;-77
2023/11/23 01:38:47;;;;;;;0.82;0.82;;;;;;;;;;1030578;28;20069;-76
2023/11/23 01:39:18;;;;;;;0.52;0.52;;;;;;;;;;1026764;28;20141;-78
2023/11/23 01:39:49;;;;;;;0.30;0.30;;;;;;;;;;1026453;28;20554;-78
2023/11/23 01:40:19;;;;;;;1.05;0.95;;;;;;;;;;1025920;28;20189;-78
2023/11/23 01:40:54;;;;;;;0.95;0.82;;;;;;;;;;1026191;28;20078;-81
2023/11/23 01:41:24;;;;;;;3.83;2.72;;;;;;;;;;1026505;28;20078;-77
2023/11/23 01:41:55;;;;;;;0.77;0.77;;;;;;;;;;1026074;28;20035;-77
2023/11/23 01:42:25;;;;;;;1.50;0.85;;;;;;;;;;1023984;28;20023;-77
2023/11/23 01:43:03;;;;;;;0.82;0.82;;;;;;;;;;1020017;28;20504;-77
2023/11/23 01:43:33;;;;;;;2.03;1.60;;;;;;;;;;1022983;28;20019;-77
2023/11/23 01:44:04;;;;;;;0.40;0.40;;;;;;;;;;1025102;28;20069;-78
2023/11/23 01:44:35;;;;;;;0.90;0.90;;;;;;;;;;1026457;28;20039;-78
2023/11/23 01:45:06;;;;;;;0.55;0.50;;;;;;;;;;1026381;28;20026;-77
2023/11/23 01:45:37;;;;;;;0.80;0.77;;;;;;;;;;1026460;28;20030;-77
2023/11/23 01:46:08;;;;;;;1.10;1.00;;;;;;;;;;1026592;28;20130;-78
2023/11/23 01:46:39;;;;;;;1.05;1.02;;;;;;;;;;1024461;28;20023;-77
2023/11/23 01:47:12;;;;;;;0.65;0.65;;;;;;;;;;1027974;28;20077;-77
2023/11/23 01:47:44;;;;;;;0.55;0.55;;;;;;;;;;1028031;28;20035;-78
2023/11/23 01:48:14;;;;;;;9.95;0.55;;;;;;;;;;1025842;28;20463;-77
2023/11/23 01:48:45;;;;;;;0.68;0.68;;;;;;;;;;1024313;28;20018;-78
2023/11/23 01:49:18;;;;;;;1.85;1.75;;;;;;;;;;1025582;28;20033;-79
2023/11/23 01:49:49;;;;;;;2.40;2.17;;;;;;;;;;1035318;23;20523;-77
2023/11/23 01:50:21;;;;;;;1.48;1.38;;;;;;;;;;1036480;28;20018;-78
2023/11/23 01:50:52;;;;;;;1.27;0.88;;;;;;;;;;1037657;28;20507;-79
2023/11/23 01:51:23;;;;;;;1.23;0.95;;;;;;;;;;1038669;28;20033;-76
2023/11/23 01:51:54;;;;;;;1.55;1.45;;;;;;;;;;1035596;28;20032;-77
2023/11/23 01:52:25;;;;;;;0.20;0.20;;;;;;;;;;1035598;28;20504;-76
2023/11/23 01:52:56;;;;;;;0.80;0.75;;;;;;;;;;1043015;23;20050;-77
2023/11/23 01:53:26;;;;;;;2.00;1.40;;;;;;;;;;1036672;28;20116;-77
2023/11/23 01:53:57;;;;;;;0.73;0.73;;;;;;;;;;1037547;28;20033;-77
2023/11/23 01:54:28;;;;;;;2.55;0.75;;;;;;;;;;1041006;22;20030;-77
2023/11/23 01:54:59;;;;;;;1.05;1.05;;;;;;;;;;1034697;28;20038;-78
2023/11/23 01:55:29;;;;;;;1.95;1.85;;;;;;;;;;1034357;28;20117;-79
2023/11/23 01:56:00;;;;;;;0.47;0.47;;;;;;;;;;1034930;28;20144;-78
2023/11/23 01:56:31;;;;;;;1.10;1.00;;;;;;;;;;1033322;28;20032;-78
2023/11/23 01:57:05;;;;;;;0.50;0.50;;;;;;;;;;1034476;28;20057;-78
2023/11/23 01:57:38;;;;;;;0.13;0.13;;;;;;;;;;1038380;23;20055;-78
2023/11/23 01:58:10;;;;;;;9.63;1.77;;;;;;;;;;1029816;28;20030;-77
2023/11/23 01:58:41;;;;;;;0.88;0.85;;;;;;;;;;1030610;28;20042;-77
2023/11/23 01:59:12;;;;;;;0.20;0.20;;;;;;;;;;1030411;28;20544;-77
2023/11/23 01:59:43;;;;;;;0.73;0.73;;;;;;;;;;1030526;28;20040;-78
2023/11/23 02:00:14;;;;;;;0.50;0.50;;;;;;;;;;1034763;28;20025;-78
2023/11/23 02:00:45;;;;;;;0.10;0.10;;;;;;;;;;1034747;28;20523;-79
2023/11/23 02:01:17;;;;;;;1.00;0.95;;;;;;;;;;1029846;28;20092;-78
2023/11/23 02:01:48;;;;;;;0.80;0.80;;;;;;;;;;1025949;28;20030;-78
2023/11/23 02:02:22;;;;;;;0.65;0.65;;;;;;;;;;1024912;28;20018;-78
2023/11/23 02:03:01;;;;;;;0.22;0.22;;;;;;;;;;1029995;28;20540;-77
2023/11/23 02:03:33;;;;;;;0.68;0.68;;;;;;;;;;1027156;28;20022;-77
2023/11/23 02:04:04;;;;;;;1.10;1.10;;;;;;;;;;1028484;28;20031;-78
2023/11/23 02:04:35;;;;;;;1.08;0.98;;;;;;;;;;1026721;28;20010;-79
2023/11/23 02:05:05;;;;;;;1.58;1.45;;;;;;;;;;1023418;28;20062;-77
2023/11/23 02:05:36;;;;;;;0.47;0.47;;;;;;;;;;1023971;28;20030;-77
2023/11/23 02:06:07;;;;;;;0.63;0.63;;;;;;;;;;1026437;28;20049;-76
2023/11/23 02:06:38;;;;;;;0.38;0.38;;;;;;;;;;1031485;28;20042;-78
2023/11/23 02:07:09;;;;;;;0.10;0.10;;;;;;;;;;1030344;28;20041;-77
2023/11/23 02:07:40;;;;;;;0.30;0.30;;;;;;;;;;1031018;28;20022;-76
2023/11/23 02:08:11;;;;;;;0.10;0.10;;;;;;;;;;1028118;28;20026;-77
2023/11/23 02:08:42;;;;;;;4.75;2.08;;;;;;;;;;1028591;28;20031;-79
2023/11/23 02:09:13;;;;;;;0.60;0.60;;;;;;;;;;1039956;22;20015;-79
2023/11/23 02:09:43;;;;;;;2.67;0.82;;;;;;;;;;1041453;23;20057;-78
2023/11/23 02:10:14;;;;;;;0.63;0.63;;;;;;;;;;1036632;28;20055;-79
2023/11/23 02:10:45;;;;;;;0.32;0.32;;;;;;;;;;1039895;28;20068;-80
2023/11/23 02:11:16;;;;;;;0.10;0.10;;;;;;;;;;1040010;28;20595;-80
2023/11/23 02:11:46;;;;;;;1.30;0.90;;;;;;;;;;1032013;28;20683;-79
2023/11/23 02:12:18;;;;;;;0.65;0.60;;;;;;;;;;1031490;28;20022;-79
2023/11/23 02:12:49;;;;;;;0.45;0.30;;;;;;;;;;1032132;28;20126;-78
2023/11/23 02:13:20;;;;;;;0.45;0.40;;;;;;;;;;1054936;22;20028;-78
2023/11/23 02:13:50;;;;;;;1.90;1.75;;;;;;;;;;1039310;28;20025;-77
2023/11/23 02:14:21;;;;;;;0.22;0.22;;;;;;;;;;1037745;28;20494;-77
2023/11/23 02:14:54;;;;;;;6.32;1.00;;;;;;;;;;1038973;28;20026;-77
2023/11/23 02:15:24;;;;;;;0.35;0.35;;;;;;;;;;1038516;28;20147;-77
2023/11/23 02:15:56;;;;;;;0.38;0.38;;;;;;;;;;1041221;28;20504;-79
2023/11/23 02:16:31;;;;;;;0.10;0.10;;;;;;;;;;1039821;28;20051;-80
2023/11/23 02:17:17;;;;;;;0.10;0.10;;;;;;;;;;1038361;28;20147;-79
2023/11/23 02:17:58;;;;;;;0.35;0.35;;;;;;;;;;1034385;28;20109;-80
2023/11/23 02:18:41;;;;;;;0.85;0.82;;;;;;;;;;1037098;28;20418;-81
2023/11/23 02:19:11;;;;;;;2.08;1.35;;;;;;;;;;1040290;28;20389;-80
2023/11/23 02:20:16;;;;;;;0.52;0.52;;;;;;;;;;1042841;28;20570;-77
2023/11/23 02:20:46;;;;;;;0.32;0.32;;;;;;;;;;1044655;28;20118;-77
2023/11/23 02:21:17;;;;;;;0.22;0.22;;;;;;;;;;1041397;28;20081;-76
2023/11/23 02:21:47;;;;;;;0.20;0.20;;;;;;;;;;1041080;28;20472;-74
2023/11/23 02:22:18;;;;;;;0.80;0.80;;;;;;;;;;1035713;28;20116;-75
2023/11/23 02:22:48;;;;;;;1.05;1.00;;;;;;;;;;1036869;28;20047;-74
2023/11/23 02:23:19;;;;;;;0.38;0.38;;;;;;;;;;1036642;28;20132;-75
2023/11/23 02:23:50;;;;;;;0.80;0.80;;;;;;;;;;1037984;28;20105;-75
2023/11/23 02:24:20;;;;;;;1.00;0.95;;;;;;;;;;1042441;28;20027;-74
2023/11/23 02:24:51;;;;;;;0.50;0.50;;;;;;;;;;1041757;28;20037;-73
2023/11/23 02:25:25;;;;;;;2.97;1.80;;;;;;;;;;1041211;28;20406;-74
2023/11/23 02:25:55;;;;;;;1.35;1.00;;;;;;;;;;1042229;28;20564;-74
2023/11/23 02:26:26;;;;;;;1.10;0.77;;;;;;;;;;1040416;28;20028;-77
2023/11/23 02:26:57;;;;;;;1.58;1.15;;;;;;;;;;1041561;28;20060;-74
2023/11/23 02:27:27;;;;;;;0.63;0.63;;;;;;;;;;1040856;28;20020;-73
2023/11/23 02:27:58;;;;;;;0.40;0.40;;;;;;;;;;1041826;28;20079;-74
2023/11/23 02:28:30;;;;;;;3.80;2.05;;;;;;;;;;1040937;28;20032;-74
2023/11/23 02:29:01;;;;;;;0.17;0.17;;;;;;;;;;1041212;28;20036;-74
2023/11/23 02:29:31;;;;;;;0.45;0.45;;;;;;;;;;1040457;28;20504;-74
2023/11/23 02:30:02;;;;;;;0.43;0.43;;;;;;;;;;1041019;28;20534;-74
2023/11/23 02:30:33;;;;;;;1.27;0.55;;;;;;;;;;1041672;28;20025;-75
2023/11/23 02:31:03;;;;;;;0.20;0.20;;;;;;;;;;1044893;28;20131;-74
2023/11/23 02:31:34;;;;;;;1.23;1.13;;;;;;;;;;1044969;28;20028;-74
2023/11/23 02:32:08;;;;;;;1.60;0.80;;;;;;;;;;1041295;28;20025;-76
2023/11/23 02:32:38;;;;;;;24.65;4.40;;;;;;;;;;1039865;28;20363;-75
2023/11/23 02:33:09;;;;;;;0.73;0.60;;;;;;;;;;1040063;28;20064;-75
2023/11/23 02:33:39;;;;;;;0.10;0.10;;;;;;;;;;1040514;28;20125;-75
2023/11/23 02:34:10;;;;;;;0.55;0.55;;;;;;;;;;1040006;28;20048;-75
2023/11/23 02:34:40;;;;;;;0.25;0.25;;;;;;;;;;1046265;28;20035;-75
2023/11/23 02:35:12;;;;;;;0.73;0.63;;;;;;;;;;1042736;28;20020;-74
2023/11/23 02:35:44;;;;;;;0.40;0.40;;;;;;;;;;1042088;28;20499;-76
2023/11/23 02:36:14;;;;;;;1.52;1.42;;;;;;;;;;1041296;28;20025;-75
2023/11/23 02:36:46;;;;;;;6.95;2.55;;;;;;;;;;1037674;28;20031;-76
2023/11/23 02:37:16;;;;;;;0.13;0.13;;;;;;;;;;1036672;28;20025;-75
2023/11/23 02:37:47;;;;;;;1.60;1.50;;;;;;;;;;1042087;28;20120;-75
2023/11/23 02:38:18;;;;;;;4.75;0.88;;;;;;;;;;1040759;28;20022;-75
2023/11/23 02:38:48;;;;;;;0.35;0.28;;;;;;;;;;1041184;28;20472;-75
2023/11/23 02:39:19;;;;;;;2.20;1.30;;;;;;;;;;1041695;28;20147;-75
2023/11/23 02:39:50;;;;;;;2.83;0.80;;;;;;;;;;1040580;28;20382;-75
2023/11/23 02:40:20;;;;;;;0.15;0.15;;;;;;;;;;1041526;28;20029;-75
2023/11/23 02:40:51;;;;;;;0.55;0.55;;;;;;;;;;1040843;28;20535;-75
2023/11/23 02:41:21;;;;;;;2.75;1.38;;;;;;;;;;1040369;28;20023;-75
2023/11/23 02:41:52;;;;;;;1.50;1.45;;;;;;;;;;1039993;28;20028;-76
2023/11/23 02:42:22;;;;;;;0.52;0.52;;;;;;;;;;1040732;28;20045;-76
2023/11/23 02:42:53;;;;;;;1.80;1.35;;;;;;;;;;1041951;28;20028;-76
2023/11/23 02:43:25;;;;;;;1.00;1.00;;;;;;;;;;1039675;28;20024;-76
2023/11/23 02:43:56;;;;;;;0.35;0.35;;;;;;;;;;1040816;28;20025;-76
2023/11/23 02:44:26;;;;;;;1.20;0.95;;;;;;;;;;1040855;28;20144;-76
2023/11/23 02:44:56;;;;;;;0.40;0.40;;;;;;;;;;1041525;28;20143;-76
2023/11/23 02:45:27;;;;;;;7.47;1.25;;;;;;;;;;1039967;28;21075;-76
2023/11/23 02:45:57;;;;;;;0.52;0.52;;;;;;;;;;1041607;28;20120;-75
2023/11/23 02:46:28;;;;;;;0.50;0.45;;;;;;;;;;1039748;28;20145;-76
2023/11/23 02:46:58;;;;;;;0.40;0.40;;;;;;;;;;1041467;28;20570;-76
2023/11/23 02:47:29;;;;;;;0.43;0.43;;;;;;;;;;1039366;28;20032;-76
2023/11/23 02:47:59;;;;;;;0.75;0.68;;;;;;;;;;1041368;28;20071;-76
2023/11/23 02:48:30;;;;;;;2.58;1.48;;;;;;;;;;1040267;28;20127;-76
2023/11/23 02:49:00;;;;;;;0.47;0.47;;;;;;;;;;1038271;28;20677;-75
2023/11/23 02:49:31;;;;;;;0.73;0.57;;;;;;;;;;1038267;28;20021;-76
2023/11/23 02:50:01;;;;;;;0.40;0.40;;;;;;;;;;1039433;28;20024;-76
2023/11/23 02:50:33;;;;;;;1.20;1.17;;;;;;;;;;1040941;28;20463;-76
2023/11/23 02:51:04;;;;;;;0.20;0.20;;;;;;;;;;1041094;28;20027;-76
2023/11/23 02:51:35;;;;;;;0.77;0.77;;;;;;;;;;1045314;28;20055;-75
2023/11/23 02:52:06;;;;;;;0.68;0.68;;;;;;;;;;1039964;28;20089;-76
2023/11/23 02:52:36;;;;;;;0.40;0.40;;;;;;;;;;1038592;28;20025;-76
2023/11/23 02:53:16;;;;;;;0.60;0.60;;;;;;;;;;1039738;28;20124;-76
2023/11/23 02:53:47;;;;;;;0.30;0.30;;;;;;;;;;1039752;28;20128;-75
2023/11/23 02:54:18;;;;;;;0.85;0.85;;;;;;;;;;1038891;28;20037;-75
2023/11/23 02:54:49;;;;;;;0.38;0.38;;;;;;;;;;1039332;28;20127;-75
2023/11/23 02:55:20;;;;;;;0.98;0.93;;;;;;;;;;1038654;28;20469;-75
2023/11/23 02:55:50;;;;;;;1.10;1.00;;;;;;;;;;1041251;28;20427;-75
2023/11/23 02:56:23;;;;;;;2.17;1.55;;;;;;;;;;1038594;28;20052;-76
2023/11/23 02:56:54;;;;;;;0.88;0.88;;;;;;;;;;1035565;28;20563;-76
2023/11/23 02:57:25;;;;;;;0.55;0.55;;;;;;;;;;1036856;28;20032;-77
2023/11/23 02:57:55;;;;;;;0.47;0.47;;;;;;;;;;1038796;28;20029;-76
2023/11/23 02:58:26;;;;;;;0.30;0.30;;;;;;;;;;1040122;28;20388;-76
2023/11/23 02:58:56;;;;;;;0.20;0.20;;;;;;;;;;1038972;28;20994;-75
2023/11/23 02:59:27;;;;;;;1.42;1.38;;;;;;;;;;1038974;28;20028;-75
2023/11/23 02:59:57;;;;;;;0.43;0.43;;;;;;;;;;1041421;28;20028;-76
2023/11/23 03:00:28;;;;;;;0.10;0.10;;;;;;;;;;1038491;28;20029;-76
2023/11/23 03:00:59;;;;;;;1.08;1.08;;;;;;;;;;1039212;28;20087;-75
2023/11/23 03:01:32;;;;;;;1.20;1.10;;;;;;;;;;1039393;28;20025;-76
2023/11/23 03:02:03;;;;;;;0.80;0.40;;;;;;;;;;1041089;28;20916;-75
2023/11/23 03:02:36;;;;;;;1.35;0.98;;;;;;;;;;1039119;28;20025;-77
2023/11/23 03:03:07;;;;;;;0.43;0.43;;;;;;;;;;1038499;28;20072;-75
2023/11/23 03:03:38;;;;;;;1.55;0.40;;;;;;;;;;1038944;28;20017;-75
2023/11/23 03:04:09;;;;;;;1.77;0.65;;;;;;;;;;1034353;28;20084;-75
2023/11/23 03:04:40;;;;;;;1.65;1.08;;;;;;;;;;1033936;28;20539;-75
2023/11/23 03:05:13;;;;;;;0.22;0.22;;;;;;;;;;1038586;28;20354;-75
2023/11/23 03:05:45;;;;;;;0.20;0.20;;;;;;;;;;1039629;28;20042;-75
2023/11/23 03:06:16;;;;;;;0.52;0.52;;;;;;;;;;1039980;28;20033;-76
2023/11/23 03:06:49;;;;;;;6.55;0.73;;;;;;;;;;1034911;28;20029;-76
2023/11/23 03:07:23;;;;;;;1.83;1.73;;;;;;;;;;1031135;28;20033;-76